createdAt,value
2018-12-23T00:01:11.188Z,7.42
2018-12-23T00:03:48.085Z,8.38
2018-12-23T00:06:26.366Z,9.40
2018-12-23T00:09:09.052Z,7.62
2018-12-23T00:11:42.716Z,9.53
2018-12-23T00:14:17.382Z,8.90
2018-12-23T00:16:50.033Z,11.30
2018-12-23T00:19:29.245Z,10.80
2018-12-23T00:22:03.056Z,11.38
2018-12-23T00:24:35.678Z,10.40
2018-12-23T00:27:08.202Z,12.80
2018-12-23T00:29:40.831Z,11.22
2018-12-23T00:32:13.397Z,12.35
2018-12-23T00:34:46.707Z,12.78
2018-12-23T00:37:19.259Z,14.78
2018-12-23T00:39:52.249Z,14.30
2018-12-23T00:42:25.480Z,15.38
2018-12-23T00:44:58.648Z,12.90
2018-12-23T00:47:31.265Z,14.98
2018-12-23T00:50:04.940Z,15.93
2018-12-23T00:52:37.490Z,17.77
2018-12-23T00:55:10.154Z,16.75
2018-12-23T00:57:42.809Z,16.90
2018-12-23T01:00:15.445Z,19.10
2018-12-23T01:02:48.320Z,18.17
2018-12-23T01:05:28.621Z,16.73
2018-12-23T01:07:55.733Z,20.45
2018-12-23T01:10:28.283Z,20.10
2018-12-23T01:13:01.975Z,14.80
2018-12-23T01:15:34.546Z,15.95
2018-12-23T01:18:07.176Z,17.65
2018-12-23T01:20:39.723Z,15.70
2018-12-23T01:23:12.349Z,15.72
2018-12-23T01:25:44.938Z,15.93
2018-12-23T01:28:17.639Z,16.12
2018-12-23T01:30:50.233Z,17.65
2018-12-23T01:33:22.893Z,14.98
2018-12-23T01:35:55.523Z,15.03
2018-12-23T01:38:28.069Z,14.50
2018-12-23T01:41:00.603Z,12.10
2018-12-23T01:43:33.292Z,10.68
2018-12-23T01:46:06.209Z,9.50
2018-12-23T01:48:38.795Z,10.58
2018-12-23T01:51:11.362Z,10.98
2018-12-23T01:53:44.029Z,10.70
2018-12-23T01:56:16.608Z,12.13
2018-12-23T01:58:49.212Z,12.13
2018-12-23T02:01:21.841Z,12.45
2018-12-23T02:03:54.422Z,11.55
2018-12-23T02:06:28.806Z,11.97
2018-12-23T02:09:01.410Z,11.33
2018-12-23T02:11:36.027Z,12.00
2018-12-23T02:14:08.588Z,13.53
2018-12-23T02:16:41.183Z,12.82
2018-12-23T02:19:13.757Z,13.90
2018-12-23T02:21:46.347Z,14.03
2018-12-23T02:24:18.954Z,14.73
2018-12-23T02:26:51.495Z,15.18
2018-12-23T02:29:24.130Z,16.02
2018-12-23T02:31:56.797Z,18.32
2018-12-23T02:34:29.348Z,17.20
2018-12-23T02:37:01.939Z,19.12
2018-12-23T02:39:35.557Z,19.25
2018-12-23T02:42:08.365Z,19.60
2018-12-23T02:44:40.873Z,19.07
2018-12-23T02:47:13.470Z,18.60
2018-12-23T02:49:46.016Z,21.20
2018-12-23T02:52:18.579Z,18.45
2018-12-23T02:54:51.151Z,19.15
2018-12-23T02:57:23.731Z,19.75
2018-12-23T02:59:56.445Z,19.95
2018-12-23T03:02:29.070Z,21.73
2018-12-23T03:05:01.720Z,18.80
2018-12-23T03:07:34.802Z,17.35
2018-12-23T03:10:07.437Z,19.40
2018-12-23T03:12:39.990Z,17.00
2018-12-23T03:15:12.506Z,16.62
2018-12-23T03:17:45.118Z,16.50
2018-12-23T03:20:17.791Z,20.50
2018-12-23T03:22:50.353Z,18.07
2018-12-23T03:25:22.973Z,17.10
2018-12-23T03:27:55.662Z,17.98
2018-12-23T03:30:28.253Z,18.37
2018-12-23T03:33:01.145Z,16.52
2018-12-23T03:35:33.789Z,18.02
2018-12-23T03:38:06.419Z,18.37
2018-12-23T03:40:38.965Z,18.50
2018-12-23T03:43:11.457Z,18.75
2018-12-23T03:45:44.055Z,17.60
2018-12-23T03:48:17.139Z,19.90
2018-12-23T03:50:49.649Z,18.98
2018-12-23T03:53:22.570Z,18.15
2018-12-23T03:55:55.092Z,19.82
2018-12-23T03:58:27.644Z,18.12
2018-12-23T04:01:00.212Z,17.67
2018-12-23T04:03:34.662Z,15.68
2018-12-23T04:06:07.681Z,17.85
2018-12-23T04:08:40.262Z,16.23
2018-12-23T04:11:14.715Z,17.10
2018-12-23T04:13:49.870Z,15.32
2018-12-23T04:16:24.082Z,13.50
2018-12-23T04:18:57.472Z,14.25
2018-12-23T04:21:29.989Z,16.30
2018-12-23T04:24:02.659Z,15.40
2018-12-23T04:26:35.779Z,14.80
2018-12-23T04:29:09.639Z,15.20
2018-12-23T04:31:42.497Z,15.58
2018-12-23T04:34:15.041Z,15.23
2018-12-23T04:36:48.707Z,15.53
2018-12-23T04:39:21.311Z,15.90
2018-12-23T04:41:53.875Z,15.48
2018-12-23T04:44:26.471Z,17.98
2018-12-23T04:46:59.178Z,15.38
2018-12-23T04:49:31.806Z,18.15
2018-12-23T04:52:04.436Z,18.12
2018-12-23T04:54:37.017Z,17.35
2018-12-23T04:57:10.113Z,19.37
2018-12-23T04:59:42.682Z,20.37
2018-12-23T05:02:15.252Z,21.55
2018-12-23T05:04:47.807Z,18.73
2018-12-23T05:07:22.547Z,21.07
2018-12-23T05:09:55.112Z,20.15
2018-12-23T05:12:27.661Z,22.80
2018-12-23T05:15:00.277Z,24.50
2018-12-23T05:17:32.903Z,25.77
2018-12-23T05:20:06.354Z,27.02
2018-12-23T05:22:38.944Z,24.47
2018-12-23T05:25:11.508Z,25.55
2018-12-23T05:27:44.903Z,26.40
2018-12-23T05:30:17.478Z,24.05
2018-12-23T05:32:50.055Z,23.87
2018-12-23T05:35:22.715Z,23.77
2018-12-23T05:37:55.207Z,23.98
2018-12-23T05:40:27.799Z,24.80
2018-12-23T05:43:00.525Z,23.35
2018-12-23T05:47:02.590Z,22.25
2018-12-23T05:49:35.147Z,23.50
2018-12-23T05:52:07.681Z,21.75
2018-12-23T05:54:40.200Z,23.12
2018-12-23T05:57:13.462Z,21.33
2018-12-23T05:59:46.033Z,24.23
2018-12-23T06:02:18.547Z,24.75
2018-12-23T06:04:51.343Z,23.25
2018-12-23T06:07:23.882Z,24.98
2018-12-23T06:09:56.406Z,25.25
2018-12-23T06:12:28.924Z,26.27
2018-12-23T06:15:01.447Z,24.82
2018-12-23T06:17:34.056Z,24.85
2018-12-23T06:20:06.744Z,22.75
2018-12-23T06:22:39.274Z,24.72
2018-12-23T06:25:11.883Z,24.20
2018-12-23T06:27:44.418Z,25.50
2018-12-23T06:30:16.982Z,26.20
2018-12-23T06:32:49.465Z,27.15
2018-12-23T06:35:22.041Z,25.17
2018-12-23T06:37:54.578Z,26.52
2018-12-23T06:40:27.807Z,29.75
2018-12-23T06:43:00.324Z,31.48
2018-12-23T06:45:33.855Z,28.83
2018-12-23T06:48:06.409Z,29.48
2018-12-23T06:50:39.006Z,26.87
2018-12-23T06:53:11.509Z,29.57
2018-12-23T06:55:44.111Z,27.67
2018-12-23T06:58:16.661Z,28.90
2018-12-23T07:00:49.210Z,26.75
2018-12-23T07:03:21.735Z,28.00
2018-12-23T07:05:54.292Z,26.57
2018-12-23T07:12:33.718Z,26.90
2018-12-23T07:15:06.866Z,24.95
2018-12-23T07:17:40.710Z,26.68
2018-12-23T07:20:14.959Z,27.42
2018-12-23T07:22:49.330Z,27.82
2018-12-23T07:25:22.750Z,26.33
2018-12-23T07:27:56.876Z,27.00
2018-12-23T07:30:30.261Z,26.77
2018-12-23T07:33:04.044Z,26.87
2018-12-23T07:35:37.795Z,24.90
2018-12-23T07:38:11.300Z,24.52
2018-12-23T07:40:45.613Z,25.57
2018-12-23T07:43:19.504Z,24.07
2018-12-23T07:45:53.825Z,23.98
2018-12-23T07:48:28.116Z,23.90
2018-12-23T07:51:02.286Z,24.45
2018-12-23T07:53:36.778Z,25.08
2018-12-23T07:56:09.769Z,24.35
2018-12-23T07:58:43.393Z,23.40
2018-12-23T08:01:16.511Z,23.42
2018-12-23T08:03:49.867Z,23.57
2018-12-23T08:06:26.654Z,23.35
2018-12-23T08:09:00.471Z,23.40
2018-12-23T08:11:35.743Z,21.37
2018-12-23T08:14:10.099Z,23.18
2018-12-23T08:16:44.095Z,22.58
2018-12-23T08:19:18.278Z,24.18
2018-12-23T08:21:52.550Z,22.80
2018-12-23T08:24:27.971Z,21.90
2018-12-23T08:27:01.849Z,21.77
2018-12-23T08:29:38.676Z,21.15
2018-12-23T08:32:12.487Z,19.10
2018-12-23T08:34:45.716Z,19.65
2018-12-23T08:37:19.595Z,20.37
2018-12-23T08:39:53.500Z,19.60
2018-12-23T08:42:27.401Z,20.57
2018-12-23T08:45:01.252Z,21.23
2018-12-23T08:47:35.620Z,20.70
2018-12-23T08:50:09.538Z,19.02
2018-12-23T08:52:42.735Z,19.25
2018-12-23T08:55:16.738Z,18.92
2018-12-23T08:57:50.407Z,19.73
2018-12-23T09:00:25.883Z,19.15
2018-12-23T09:03:00.123Z,18.82
2018-12-23T09:05:34.302Z,18.95
2018-12-23T09:08:07.730Z,20.35
2018-12-23T09:10:43.888Z,20.30
2018-12-23T09:13:17.257Z,18.92
2018-12-23T09:15:52.186Z,20.48
2018-12-23T09:18:26.399Z,19.95
2018-12-23T09:20:59.558Z,17.52
2018-12-23T09:23:33.813Z,18.60
2018-12-23T09:26:06.859Z,19.02
2018-12-23T09:28:47.931Z,20.10
2018-12-23T09:31:22.331Z,20.08
2018-12-23T09:33:55.802Z,20.15
2018-12-23T09:36:30.091Z,20.32
2018-12-23T09:39:06.135Z,19.80
2018-12-23T09:41:39.226Z,18.90
2018-12-23T09:44:13.938Z,20.00
2018-12-23T09:46:48.146Z,17.52
2018-12-23T09:49:23.263Z,18.65
2018-12-23T09:51:57.083Z,18.80
2018-12-23T09:54:30.264Z,18.35
2018-12-23T09:57:03.812Z,18.95
2018-12-23T09:59:38.009Z,21.00
2018-12-23T10:02:13.769Z,19.17
2018-12-23T10:04:47.977Z,19.77
2018-12-23T10:07:21.975Z,18.60
2018-12-23T10:09:56.363Z,17.55
2018-12-23T10:12:30.257Z,19.07
2018-12-23T10:15:06.996Z,19.35
2018-12-23T10:17:41.819Z,21.73
2018-12-23T10:20:15.609Z,21.30
2018-12-23T10:22:49.905Z,21.75
2018-12-23T10:25:23.134Z,21.40
2018-12-23T10:27:57.391Z,20.17
2018-12-23T10:30:31.377Z,21.20
2018-12-23T10:33:04.601Z,20.37
2018-12-23T10:35:38.594Z,18.90
2018-12-23T10:38:18.299Z,19.25
2018-12-23T12:59:24.873Z,15.85
2018-12-23T13:02:03.773Z,13.10
2018-12-23T13:04:42.705Z,15.20
2018-12-23T13:07:22.448Z,12.28
2018-12-23T13:10:00.541Z,10.60
2018-12-23T13:12:56.646Z,11.20
2018-12-23T13:15:37.193Z,11.55
2018-12-23T13:18:20.487Z,11.73
2018-12-23T13:20:57.729Z,11.68
2018-12-23T13:23:50.873Z,11.08
2018-12-23T13:26:49.313Z,10.65
2018-12-23T13:29:32.144Z,10.70
2018-12-23T13:32:06.049Z,10.28
2018-12-23T13:34:43.554Z,9.98
2018-12-23T13:37:17.433Z,12.35
2018-12-23T13:39:56.265Z,11.25
2018-12-23T13:42:54.167Z,10.45
2018-12-23T13:46:25.724Z,10.03
2018-12-23T13:49:26.334Z,9.35
2018-12-23T13:52:27.990Z,11.93
2018-12-23T13:55:57.204Z,10.08
2018-12-23T13:58:56.531Z,10.70
2018-12-23T14:02:10.031Z,8.53
2018-12-23T14:05:22.890Z,9.83
2018-12-23T14:08:25.775Z,8.98
2018-12-23T14:11:38.095Z,10.48
2018-12-23T14:14:11.726Z,8.15
2018-12-23T14:16:46.876Z,8.30
2018-12-23T14:19:22.015Z,6.60
2018-12-23T14:21:56.022Z,6.95
2018-12-23T14:24:40.100Z,6.62
2018-12-23T14:27:19.352Z,8.08
2018-12-23T14:29:57.401Z,8.55
2018-12-23T14:32:41.558Z,7.60
2018-12-23T14:35:18.581Z,7.50
2018-12-23T14:37:56.757Z,9.90
2018-12-23T14:40:37.846Z,9.30
2018-12-23T14:43:28.837Z,8.80
2018-12-23T14:46:10.471Z,9.23
2018-12-23T14:48:49.237Z,7.97
2018-12-23T14:51:25.193Z,7.65
2018-12-23T14:54:00.246Z,7.60
2018-12-23T14:56:40.390Z,8.03
2018-12-23T14:59:18.594Z,9.83
2018-12-23T15:01:54.125Z,10.80
2018-12-23T15:04:31.272Z,10.38
2018-12-23T15:07:05.504Z,8.90
2018-12-23T15:09:40.530Z,10.68
2018-12-23T15:12:17.774Z,10.48
2018-12-23T15:14:56.216Z,9.90
2018-12-23T15:17:32.296Z,11.85
2018-12-23T15:20:07.646Z,11.30
2018-12-23T15:22:45.500Z,9.83
2018-12-23T15:25:21.295Z,12.55
2018-12-23T15:28:23.722Z,12.25
2018-12-23T15:31:04.944Z,12.60
2018-12-23T15:33:40.804Z,12.58
2018-12-23T15:36:16.120Z,13.20
2018-12-23T15:38:53.404Z,13.25
2018-12-23T15:41:28.351Z,13.00
2018-12-23T15:44:02.866Z,10.18
2018-12-23T15:46:36.759Z,10.78
2018-12-23T15:49:10.699Z,11.70
2018-12-23T15:51:56.361Z,10.95
2018-12-23T15:54:46.225Z,12.23
2018-12-23T15:57:22.165Z,11.40
2018-12-23T15:59:59.823Z,13.50
2018-12-23T16:03:13.934Z,14.68
2018-12-23T16:05:55.230Z,12.07
2018-12-23T16:08:28.896Z,11.25
2018-12-23T16:11:02.410Z,12.80
2018-12-23T16:13:37.406Z,13.18
2018-12-23T16:16:11.137Z,16.80
2018-12-23T16:18:44.832Z,15.18
2018-12-23T16:21:18.980Z,13.22
2018-12-23T16:23:53.429Z,12.05
2018-12-23T16:26:29.188Z,11.78
2018-12-23T16:29:03.126Z,12.20
2018-12-23T16:31:40.566Z,12.47
2018-12-23T16:34:16.371Z,14.10
2018-12-23T16:36:50.396Z,13.75
2018-12-23T16:39:25.085Z,13.03
2018-12-23T16:41:59.168Z,15.13
2018-12-23T16:44:33.520Z,14.20
2018-12-23T16:47:08.299Z,15.95
2018-12-23T16:49:42.722Z,17.73
2018-12-23T16:52:16.789Z,19.70
2018-12-23T16:54:50.642Z,17.35
2018-12-23T16:57:24.490Z,18.55
2018-12-23T16:59:58.609Z,18.57
2018-12-23T17:02:32.617Z,18.30
2018-12-23T17:05:07.652Z,18.55
2018-12-23T17:07:42.099Z,20.92
2018-12-23T17:10:17.412Z,20.25
2018-12-23T17:12:52.397Z,21.30
2018-12-23T17:15:27.073Z,17.35
2018-12-23T17:18:00.151Z,17.35
2018-12-23T17:20:33.273Z,18.27
2018-12-23T17:23:07.317Z,15.78
2018-12-23T17:25:44.183Z,15.75
2018-12-23T17:28:19.182Z,18.27
2018-12-23T17:30:53.069Z,16.95
2018-12-23T17:33:26.911Z,17.98
2018-12-23T17:36:00.800Z,19.02
2018-12-23T17:38:37.004Z,18.40
2018-12-23T17:41:10.705Z,19.55
2018-12-23T17:43:48.140Z,19.75
2018-12-23T17:46:23.788Z,20.52
2018-12-23T17:48:58.230Z,20.10
2018-12-23T17:51:31.859Z,20.27
2018-12-23T17:54:07.540Z,22.32
2018-12-23T17:56:41.560Z,21.37
2018-12-23T17:59:15.736Z,19.15
2018-12-23T18:01:49.720Z,22.37
2018-12-23T18:04:23.982Z,25.23
2018-12-23T18:07:03.708Z,24.20
2018-12-23T18:09:37.007Z,23.67
2018-12-23T18:12:10.525Z,24.70
2018-12-23T18:14:47.169Z,22.62
2018-12-23T18:17:20.927Z,23.57
2018-12-23T18:19:54.883Z,25.62
2018-12-23T18:22:28.777Z,25.82
2018-12-23T18:25:03.505Z,24.40
2018-12-23T18:27:37.103Z,21.87
2018-12-23T18:30:10.090Z,21.23
2018-12-23T18:32:43.322Z,22.95
2018-12-23T18:35:17.070Z,21.20
2018-12-23T18:37:51.408Z,20.52
2018-12-23T18:40:33.162Z,21.68
2018-12-23T18:43:01.958Z,20.57
2018-12-23T18:45:38.518Z,20.70
2018-12-23T18:48:14.334Z,17.15
2018-12-23T18:50:49.105Z,20.17
2018-12-23T18:53:22.345Z,24.65
2018-12-23T18:55:56.478Z,24.55
2018-12-23T18:58:30.497Z,23.40
2018-12-23T19:01:07.227Z,24.65
2018-12-23T19:03:41.667Z,25.62
2018-12-23T19:06:19.463Z,24.82
2018-12-23T19:09:08.745Z,23.25
2018-12-23T19:12:19.304Z,21.02
2018-12-23T19:15:51.995Z,19.57
2018-12-23T19:19:21.618Z,20.30
2018-12-23T19:22:19.279Z,22.85
2018-12-23T19:25:09.879Z,21.62
2018-12-23T19:28:13.095Z,22.10
2018-12-23T19:31:29.619Z,15.68
2018-12-23T19:34:48.711Z,12.60
2018-12-23T19:38:17.948Z,14.87
2018-12-23T19:41:40.651Z,12.45
2018-12-23T19:45:06.070Z,18.48
2018-12-23T19:48:16.675Z,24.82
2018-12-23T19:51:40.409Z,28.30
2018-12-23T19:54:50.953Z,24.65
2018-12-23T19:57:46.090Z,31.50
2018-12-23T20:00:41.892Z,42.83
2018-12-23T20:04:15.248Z,39.73
2018-12-23T20:07:29.003Z,30.12
2018-12-23T20:10:47.772Z,37.67
2018-12-23T20:14:16.178Z,38.02
2018-12-23T20:17:27.088Z,25.97
2018-12-23T20:20:37.842Z,23.95
2018-12-23T20:23:48.589Z,10.53
2018-12-23T20:26:55.494Z,10.03
2018-12-23T20:30:31.750Z,10.60
2018-12-23T20:33:39.447Z,12.43
2018-12-23T20:36:52.770Z,9.55
2018-12-23T20:40:07.241Z,9.28
2018-12-23T20:43:33.390Z,7.92
2018-12-23T20:46:33.582Z,8.33
2018-12-23T20:49:30.477Z,7.28
2018-12-23T20:52:36.675Z,10.08
2018-12-23T20:55:32.244Z,12.55
2018-12-23T20:58:43.483Z,9.48
2018-12-23T21:01:54.394Z,10.45
2018-12-23T21:05:44.184Z,8.03
2018-12-23T21:08:54.971Z,7.60
2018-12-23T21:12:10.597Z,6.70
2018-12-23T21:15:21.109Z,6.30
2018-12-23T21:18:31.385Z,7.62
2018-12-23T21:21:22.851Z,6.75
2018-12-23T21:24:33.980Z,7.00
2018-12-23T21:28:04.414Z,6.00
2018-12-23T21:31:30.046Z,6.00
2018-12-23T21:34:40.191Z,6.05
2018-12-23T21:37:33.961Z,5.65
2018-12-23T21:40:45.914Z,6.40
2018-12-23T21:44:06.201Z,6.00
2018-12-23T21:47:27.790Z,5.72
2018-12-23T21:50:19.090Z,5.97
2018-12-23T21:53:34.177Z,5.55
2018-12-23T21:57:07.531Z,4.60
2018-12-23T22:00:09.413Z,3.90
2018-12-23T22:03:27.614Z,4.05
2018-12-23T22:07:04.800Z,3.95
2018-12-23T22:10:22.058Z,4.25
2018-12-23T22:13:28.041Z,3.20
2018-12-23T22:16:04.267Z,4.20
2018-12-23T22:18:37.853Z,3.77
2018-12-23T22:21:11.238Z,4.78
2018-12-23T22:23:46.484Z,3.45
2018-12-23T22:26:20.715Z,3.65
2018-12-23T22:29:06.487Z,4.20
2018-12-23T22:31:42.273Z,3.50
2018-12-23T22:34:18.425Z,3.10
2018-12-23T22:36:52.738Z,3.45
2018-12-23T22:39:28.480Z,3.45
2018-12-23T22:42:02.780Z,4.75
2018-12-23T22:44:37.041Z,5.15
2018-12-23T22:47:10.745Z,5.58
2018-12-23T22:49:44.827Z,5.65
2018-12-23T22:52:19.281Z,5.20
2018-12-23T22:54:57.134Z,5.53
2018-12-23T22:57:30.731Z,6.17
2018-12-23T23:00:09.109Z,6.28
2018-12-23T23:02:50.015Z,6.33
2018-12-23T23:05:35.007Z,6.67
2018-12-23T23:08:11.521Z,7.10
2018-12-23T23:10:49.313Z,5.30
2018-12-23T23:13:29.169Z,7.33
2018-12-23T23:16:10.827Z,8.13
2018-12-23T23:18:59.231Z,7.95
2018-12-23T23:21:40.752Z,8.18
2018-12-23T23:24:19.479Z,8.30
2018-12-23T23:27:00.153Z,8.08
2018-12-23T23:30:01.379Z,6.92
2018-12-23T23:32:51.120Z,6.83
2018-12-23T23:35:29.286Z,7.15
2018-12-23T23:38:04.471Z,7.80
2018-12-23T23:40:37.280Z,8.25
2018-12-23T23:43:20.751Z,6.75
2018-12-23T23:45:58.966Z,7.47
2018-12-23T23:48:32.443Z,7.83
2018-12-23T23:51:07.097Z,8.33
2018-12-23T23:53:40.481Z,8.83
2018-12-23T23:56:13.937Z,9.53
2018-12-23T23:58:49.325Z,9.43
